Cobble Hill, Canada
Current Conditions -  °F | °C
As of 1:26 AM on Thursday 27 Nov 2014 (Local Time) from CYYJ Reporting Station
Haze Haze  
Wind Chill: 57°   Ceiling: 3500
Heat Index: 57°   Visibility: 6mi
Dew Point: 52°   Wind: 12mph
Humidity: 82%   Direction: 190°S
Pressure: 29.74"   Gusts: 20mph
Location:  48.68°N, 123.6°W
Report Text: CYYJ 270926Z 19010G17KT 150V210 6SM BR FEW007 SCT021 BKN035 BKN050 14/11 A2974 RMK SF1SC3SC2SC2 SF TR NE VIS 15 SLP071 DENSITY ALT 100FT
Loading
Personal Weather Stations






























Interactive Weather Map New forecast layout! Learn more

10-Day Weather Forecast

Advertisements
Track Severe Weather on mobile